sensor_id;sensor_type;location;lat;lon;timestamp;P1;durP1;ratioP1;P2;durP2;ratioP2
17461;SDS011;8848;50.810;4.790;2022-08-21T00:02:26;2.13;;;1.92;;
17461;SDS011;8848;50.810;4.790;2022-08-21T00:04:52;2.58;;;2.00;;
17461;SDS011;8848;50.810;4.790;2022-08-21T00:07:19;3.47;;;1.88;;
17461;SDS011;8848;50.810;4.790;2022-08-21T00:09:46;2.53;;;1.90;;
17461;SDS011;8848;50.810;4.790;2022-08-21T00:12:12;2.45;;;1.80;;
17461;SDS011;8848;50.810;4.790;2022-08-21T00:14:38;1.65;;;1.50;;
17461;SDS011;8848;50.810;4.790;2022-08-21T00:17:05;2.38;;;1.90;;
17461;SDS011;8848;50.810;4.790;2022-08-21T00:19:31;2.20;;;2.00;;
17461;SDS011;8848;50.810;4.790;2022-08-21T00:21:57;2.53;;;1.90;;
17461;SDS011;8848;50.810;4.790;2022-08-21T00:24:23;2.70;;;1.80;;
17461;SDS011;8848;50.810;4.790;2022-08-21T00:26:50;2.03;;;1.73;;
17461;SDS011;8848;50.810;4.790;2022-08-21T00:29:16;1.65;;;1.55;;
17461;SDS011;8848;50.810;4.790;2022-08-21T00:31:43;2.28;;;1.83;;
17461;SDS011;8848;50.810;4.790;2022-08-21T00:34:09;2.25;;;1.73;;
17461;SDS011;8848;50.810;4.790;2022-08-21T00:36:36;3.38;;;2.15;;
17461;SDS011;8848;50.810;4.790;2022-08-21T00:39:03;2.60;;;1.88;;
17461;SDS011;8848;50.810;4.790;2022-08-21T00:41:30;2.45;;;1.85;;
17461;SDS011;8848;50.810;4.790;2022-08-21T00:43:56;2.33;;;1.70;;
17461;SDS011;8848;50.810;4.790;2022-08-21T00:46:22;1.70;;;1.60;;
17461;SDS011;8848;50.810;4.790;2022-08-21T00:48:48;1.92;;;1.50;;
17461;SDS011;8848;50.810;4.790;2022-08-21T00:51:19;2.28;;;1.80;;
17461;SDS011;8848;50.810;4.790;2022-08-21T00:53:48;2.20;;;1.90;;
17461;SDS011;8848;50.810;4.790;2022-08-21T00:56:15;2.53;;;1.98;;
17461;SDS011;8848;50.810;4.790;2022-08-21T00:58:41;2.30;;;1.70;;
17461;SDS011;8848;50.810;4.790;2022-08-21T01:01:08;2.13;;;1.70;;
17461;SDS011;8848;50.810;4.790;2022-08-21T01:03:34;2.13;;;1.77;;
17461;SDS011;8848;50.810;4.790;2022-08-21T01:06:01;3.25;;;1.95;;
17461;SDS011;8848;50.810;4.790;2022-08-21T01:08:29;1.60;;;1.50;;
17461;SDS011;8848;50.810;4.790;2022-08-21T01:10:55;2.20;;;1.83;;
17461;SDS011;8848;50.810;4.790;2022-08-21T01:13:22;2.10;;;1.67;;
17461;SDS011;8848;50.810;4.790;2022-08-21T01:15:50;2.30;;;1.67;;
17461;SDS011;8848;50.810;4.790;2022-08-21T01:18:17;1.83;;;1.67;;
17461;SDS011;8848;50.810;4.790;2022-08-21T01:20:45;1.75;;;1.65;;
17461;SDS011;8848;50.810;4.790;2022-08-21T01:23:11;2.42;;;1.73;;
17461;SDS011;8848;50.810;4.790;2022-08-21T01:25:38;2.63;;;1.83;;
17461;SDS011;8848;50.810;4.790;2022-08-21T01:28:09;2.38;;;1.75;;
17461;SDS011;8848;50.810;4.790;2022-08-21T01:30:37;2.33;;;1.67;;
17461;SDS011;8848;50.810;4.790;2022-08-21T01:33:04;1.92;;;1.77;;
17461;SDS011;8848;50.810;4.790;2022-08-21T01:35:30;2.35;;;1.42;;
17461;SDS011;8848;50.810;4.790;2022-08-21T01:37:56;1.45;;;1.33;;
17461;SDS011;8848;50.810;4.790;2022-08-21T01:40:22;2.72;;;2.05;;
17461;SDS011;8848;50.810;4.790;2022-08-21T01:42:48;2.22;;;1.83;;
17461;SDS011;8848;50.810;4.790;2022-08-21T01:45:14;2.50;;;1.70;;
17461;SDS011;8848;50.810;4.790;2022-08-21T01:47:41;1.70;;;1.52;;
17461;SDS011;8848;50.810;4.790;2022-08-21T01:50:09;1.85;;;1.48;;
17461;SDS011;8848;50.810;4.790;2022-08-21T01:52:35;2.03;;;1.70;;
17461;SDS011;8848;50.810;4.790;2022-08-21T01:55:01;2.50;;;1.65;;
17461;SDS011;8848;50.810;4.790;2022-08-21T01:57:28;2.45;;;1.77;;
17461;SDS011;8848;50.810;4.790;2022-08-21T01:59:54;2.63;;;1.60;;
17461;SDS011;8848;50.810;4.790;2022-08-21T02:02:20;2.22;;;1.67;;
17461;SDS011;8848;50.810;4.790;2022-08-21T02:04:46;2.05;;;1.75;;
17461;SDS011;8848;50.810;4.790;2022-08-21T02:07:12;2.33;;;1.90;;
17461;SDS011;8848;50.810;4.790;2022-08-21T02:09:38;2.42;;;1.38;;
17461;SDS011;8848;50.810;4.790;2022-08-21T02:12:07;2.10;;;1.50;;
17461;SDS011;8848;50.810;4.790;2022-08-21T02:14:33;1.50;;;1.17;;
17461;SDS011;8848;50.810;4.790;2022-08-21T02:16:59;1.95;;;1.45;;
17461;SDS011;8848;50.810;4.790;2022-08-21T02:19:25;1.83;;;1.50;;
17461;SDS011;8848;50.810;4.790;2022-08-21T02:21:51;2.05;;;1.40;;
17461;SDS011;8848;50.810;4.790;2022-08-21T02:24:17;1.75;;;1.50;;
17461;SDS011;8848;50.810;4.790;2022-08-21T02:26:43;1.52;;;1.38;;
17461;SDS011;8848;50.810;4.790;2022-08-21T02:29:09;2.35;;;1.73;;
17461;SDS011;8848;50.810;4.790;2022-08-21T02:31:35;2.17;;;1.40;;
17461;SDS011;8848;50.810;4.790;2022-08-21T02:34:01;1.77;;;1.65;;
17461;SDS011;8848;50.810;4.790;2022-08-21T02:36:28;2.22;;;1.55;;
17461;SDS011;8848;50.810;4.790;2022-08-21T02:38:54;2.17;;;1.48;;
17461;SDS011;8848;50.810;4.790;2022-08-21T02:41:21;2.05;;;1.42;;
17461;SDS011;8848;50.810;4.790;2022-08-21T02:43:47;1.63;;;1.52;;
17461;SDS011;8848;50.810;4.790;2022-08-21T02:46:14;1.77;;;1.30;;
17461;SDS011;8848;50.810;4.790;2022-08-21T02:48:40;2.08;;;1.70;;
17461;SDS011;8848;50.810;4.790;2022-08-21T02:51:08;2.20;;;1.52;;
17461;SDS011;8848;50.810;4.790;2022-08-21T02:53:34;1.58;;;1.45;;
17461;SDS011;8848;50.810;4.790;2022-08-21T02:56:01;1.50;;;1.35;;
17461;SDS011;8848;50.810;4.790;2022-08-21T02:58:33;1.88;;;1.67;;
17461;SDS011;8848;50.810;4.790;2022-08-21T03:00:59;1.75;;;1.40;;
17461;SDS011;8848;50.810;4.790;2022-08-21T03:03:26;2.28;;;1.67;;
17461;SDS011;8848;50.810;4.790;2022-08-21T03:05:54;2.45;;;1.60;;
17461;SDS011;8848;50.810;4.790;2022-08-21T03:08:20;1.63;;;1.50;;
17461;SDS011;8848;50.810;4.790;2022-08-21T03:10:47;1.45;;;1.30;;
17461;SDS011;8848;50.810;4.790;2022-08-21T03:13:13;1.88;;;1.70;;
17461;SDS011;8848;50.810;4.790;2022-08-21T03:15:40;1.40;;;1.20;;
17461;SDS011;8848;50.810;4.790;2022-08-21T03:18:06;2.35;;;1.20;;
17461;SDS011;8848;50.810;4.790;2022-08-21T03:20:32;2.20;;;1.48;;
17461;SDS011;8848;50.810;4.790;2022-08-21T03:22:59;1.65;;;1.05;;
17461;SDS011;8848;50.810;4.790;2022-08-21T03:25:25;2.40;;;1.58;;
17461;SDS011;8848;50.810;4.790;2022-08-21T03:27:52;1.58;;;1.30;;
17461;SDS011;8848;50.810;4.790;2022-08-21T03:30:19;1.48;;;1.38;;
17461;SDS011;8848;50.810;4.790;2022-08-21T03:32:47;1.40;;;1.30;;
17461;SDS011;8848;50.810;4.790;2022-08-21T03:35:14;1.60;;;1.40;;
17461;SDS011;8848;50.810;4.790;2022-08-21T03:37:40;1.77;;;1.52;;
17461;SDS011;8848;50.810;4.790;2022-08-21T03:40:07;2.65;;;1.42;;
17461;SDS011;8848;50.810;4.790;2022-08-21T03:42:33;1.50;;;1.10;;
17461;SDS011;8848;50.810;4.790;2022-08-21T03:44:59;1.33;;;1.13;;
17461;SDS011;8848;50.810;4.790;2022-08-21T03:47:26;1.42;;;1.33;;
17461;SDS011;8848;50.810;4.790;2022-08-21T03:49:52;1.63;;;1.30;;
17461;SDS011;8848;50.810;4.790;2022-08-21T03:52:19;1.38;;;1.20;;
17461;SDS011;8848;50.810;4.790;2022-08-21T03:54:45;1.70;;;1.13;;
17461;SDS011;8848;50.810;4.790;2022-08-21T03:57:11;2.10;;;1.35;;
17461;SDS011;8848;50.810;4.790;2022-08-21T03:59:37;1.80;;;1.20;;
17461;SDS011;8848;50.810;4.790;2022-08-21T04:02:08;1.95;;;1.20;;
17461;SDS011;8848;50.810;4.790;2022-08-21T04:04:34;1.73;;;1.33;;
17461;SDS011;8848;50.810;4.790;2022-08-21T04:07:01;1.92;;;1.58;;
17461;SDS011;8848;50.810;4.790;2022-08-21T04:09:28;2.55;;;1.45;;
17461;SDS011;8848;50.810;4.790;2022-08-21T04:11:55;1.45;;;1.27;;
17461;SDS011;8848;50.810;4.790;2022-08-21T04:14:21;2.28;;;1.30;;
17461;SDS011;8848;50.810;4.790;2022-08-21T04:16:47;1.52;;;1.38;;
17461;SDS011;8848;50.810;4.790;2022-08-21T04:19:13;1.35;;;1.20;;
17461;SDS011;8848;50.810;4.790;2022-08-21T04:21:39;1.50;;;1.20;;
17461;SDS011;8848;50.810;4.790;2022-08-21T04:24:06;1.85;;;1.30;;
17461;SDS011;8848;50.810;4.790;2022-08-21T04:26:33;1.85;;;1.10;;
17461;SDS011;8848;50.810;4.790;2022-08-21T04:28:59;1.63;;;1.13;;
17461;SDS011;8848;50.810;4.790;2022-08-21T04:31:25;2.65;;;1.40;;
17461;SDS011;8848;50.810;4.790;2022-08-21T04:33:52;1.50;;;1.23;;
17461;SDS011;8848;50.810;4.790;2022-08-21T04:36:18;1.52;;;1.38;;
17461;SDS011;8848;50.810;4.790;2022-08-21T04:38:44;1.58;;;1.08;;
17461;SDS011;8848;50.810;4.790;2022-08-21T04:41:10;1.52;;;1.30;;
17461;SDS011;8848;50.810;4.790;2022-08-21T04:43:36;1.52;;;1.20;;
17461;SDS011;8848;50.810;4.790;2022-08-21T04:46:03;1.58;;;1.27;;
17461;SDS011;8848;50.810;4.790;2022-08-21T04:48:29;1.63;;;1.10;;
17461;SDS011;8848;50.810;4.790;2022-08-21T04:53:26;1.15;;;1.05;;
17461;SDS011;8848;50.810;4.790;2022-08-21T04:55:53;1.50;;;1.00;;
17461;SDS011;8848;50.810;4.790;2022-08-21T04:58:20;1.85;;;1.15;;
17461;SDS011;8848;50.810;4.790;2022-08-21T05:00:47;1.30;;;1.05;;
17461;SDS011;8848;50.810;4.790;2022-08-21T05:03:14;1.58;;;1.17;;
17461;SDS011;8848;50.810;4.790;2022-08-21T05:05:41;1.40;;;1.20;;
17461;SDS011;8848;50.810;4.790;2022-08-21T05:08:08;1.08;;;0.98;;
17461;SDS011;8848;50.810;4.790;2022-08-21T05:10:35;2.20;;;1.15;;
17461;SDS011;8848;50.810;4.790;2022-08-21T05:13:01;1.60;;;1.13;;
17461;SDS011;8848;50.810;4.790;2022-08-21T05:15:27;1.80;;;1.20;;
17461;SDS011;8848;50.810;4.790;2022-08-21T05:17:55;2.05;;;1.27;;
17461;SDS011;8848;50.810;4.790;2022-08-21T05:20:21;1.67;;;1.20;;
17461;SDS011;8848;50.810;4.790;2022-08-21T05:22:48;1.63;;;0.90;;
17461;SDS011;8848;50.810;4.790;2022-08-21T05:25:14;1.20;;;0.90;;
17461;SDS011;8848;50.810;4.790;2022-08-21T05:27:40;0.95;;;0.82;;
17461;SDS011;8848;50.810;4.790;2022-08-21T05:30:07;1.98;;;1.27;;
17461;SDS011;8848;50.810;4.790;2022-08-21T05:32:33;1.35;;;1.10;;
17461;SDS011;8848;50.810;4.790;2022-08-21T05:35:00;1.88;;;1.00;;
17461;SDS011;8848;50.810;4.790;2022-08-21T05:37:26;1.15;;;0.88;;
17461;SDS011;8848;50.810;4.790;2022-08-21T05:39:52;1.27;;;1.02;;
17461;SDS011;8848;50.810;4.790;2022-08-21T05:42:18;1.23;;;0.95;;
17461;SDS011;8848;50.810;4.790;2022-08-21T05:44:44;1.67;;;1.00;;
17461;SDS011;8848;50.810;4.790;2022-08-21T05:47:10;1.30;;;1.20;;
17461;SDS011;8848;50.810;4.790;2022-08-21T05:49:36;1.55;;;1.23;;
17461;SDS011;8848;50.810;4.790;2022-08-21T05:52:03;1.40;;;1.15;;
17461;SDS011;8848;50.810;4.790;2022-08-21T05:54:29;1.52;;;1.10;;
17461;SDS011;8848;50.810;4.790;2022-08-21T05:56:55;1.98;;;1.20;;
17461;SDS011;8848;50.810;4.790;2022-08-21T05:59:22;1.38;;;1.05;;
17461;SDS011;8848;50.810;4.790;2022-08-21T06:01:48;1.95;;;1.27;;
17461;SDS011;8848;50.810;4.790;2022-08-21T06:04:17;2.35;;;1.17;;
17461;SDS011;8848;50.810;4.790;2022-08-21T06:06:43;2.08;;;1.30;;
17461;SDS011;8848;50.810;4.790;2022-08-21T06:09:09;1.55;;;1.02;;
17461;SDS011;8848;50.810;4.790;2022-08-21T06:11:35;1.63;;;0.90;;
17461;SDS011;8848;50.810;4.790;2022-08-21T06:14:01;0.93;;;0.80;;
17461;SDS011;8848;50.810;4.790;2022-08-21T06:16:27;1.92;;;1.33;;
17461;SDS011;8848;50.810;4.790;2022-08-21T06:18:53;1.33;;;1.02;;
17461;SDS011;8848;50.810;4.790;2022-08-21T06:21:19;1.65;;;1.10;;
17461;SDS011;8848;50.810;4.790;2022-08-21T06:23:45;2.47;;;1.10;;
17461;SDS011;8848;50.810;4.790;2022-08-21T06:26:12;2.78;;;1.48;;
17461;SDS011;8848;50.810;4.790;2022-08-21T06:28:38;2.47;;;1.60;;
17461;SDS011;8848;50.810;4.790;2022-08-21T06:33:59;1.25;;;1.15;;
17461;SDS011;8848;50.810;4.790;2022-08-21T06:36:25;1.83;;;1.45;;
17461;SDS011;8848;50.810;4.790;2022-08-21T06:38:52;1.63;;;1.25;;
17461;SDS011;8848;50.810;4.790;2022-08-21T06:41:18;1.70;;;1.10;;
17461;SDS011;8848;50.810;4.790;2022-08-21T06:43:44;1.98;;;1.13;;
17461;SDS011;8848;50.810;4.790;2022-08-21T06:46:10;1.95;;;1.20;;
17461;SDS011;8848;50.810;4.790;2022-08-21T06:48:36;2.67;;;1.42;;
17461;SDS011;8848;50.810;4.790;2022-08-21T06:51:02;2.05;;;1.30;;
17461;SDS011;8848;50.810;4.790;2022-08-21T06:53:28;1.85;;;1.30;;
17461;SDS011;8848;50.810;4.790;2022-08-21T06:55:54;1.55;;;1.10;;
17461;SDS011;8848;50.810;4.790;2022-08-21T06:58:20;1.38;;;1.20;;
17461;SDS011;8848;50.810;4.790;2022-08-21T07:00:47;1.40;;;1.27;;
17461;SDS011;8848;50.810;4.790;2022-08-21T07:03:17;1.85;;;1.20;;
17461;SDS011;8848;50.810;4.790;2022-08-21T07:05:44;3.58;;;1.35;;
17461;SDS011;8848;50.810;4.790;2022-08-21T07:08:10;2.60;;;1.45;;
17461;SDS011;8848;50.810;4.790;2022-08-21T07:10:36;2.20;;;1.40;;
17461;SDS011;8848;50.810;4.790;2022-08-21T07:13:02;2.90;;;1.40;;
17461;SDS011;8848;50.810;4.790;2022-08-21T07:15:28;2.03;;;1.30;;
17461;SDS011;8848;50.810;4.790;2022-08-21T07:17:54;1.95;;;1.35;;
17461;SDS011;8848;50.810;4.790;2022-08-21T07:20:21;2.13;;;1.02;;
17461;SDS011;8848;50.810;4.790;2022-08-21T07:22:47;2.40;;;1.40;;
17461;SDS011;8848;50.810;4.790;2022-08-21T07:25:13;1.58;;;1.17;;
17461;SDS011;8848;50.810;4.790;2022-08-21T07:27:39;1.88;;;1.25;;
17461;SDS011;8848;50.810;4.790;2022-08-21T07:30:06;1.80;;;1.17;;
17461;SDS011;8848;50.810;4.790;2022-08-21T07:32:32;1.95;;;1.25;;
17461;SDS011;8848;50.810;4.790;2022-08-21T07:34:58;1.73;;;1.30;;
17461;SDS011;8848;50.810;4.790;2022-08-21T07:37:24;1.70;;;1.20;;
17461;SDS011;8848;50.810;4.790;2022-08-21T07:39:50;1.45;;;1.20;;
17461;SDS011;8848;50.810;4.790;2022-08-21T07:42:16;1.40;;;1.10;;
17461;SDS011;8848;50.810;4.790;2022-08-21T07:44:42;1.50;;;1.00;;
17461;SDS011;8848;50.810;4.790;2022-08-21T07:47:09;1.60;;;1.10;;
17461;SDS011;8848;50.810;4.790;2022-08-21T07:49:35;2.35;;;1.40;;
17461;SDS011;8848;50.810;4.790;2022-08-21T07:52:01;2.58;;;1.30;;
17461;SDS011;8848;50.810;4.790;2022-08-21T07:54:27;2.05;;;1.10;;
17461;SDS011;8848;50.810;4.790;2022-08-21T07:56:53;1.27;;;1.00;;
17461;SDS011;8848;50.810;4.790;2022-08-21T07:59:19;1.92;;;1.42;;
17461;SDS011;8848;50.810;4.790;2022-08-21T08:01:45;2.25;;;1.42;;
17461;SDS011;8848;50.810;4.790;2022-08-21T08:04:11;1.60;;;1.00;;
17461;SDS011;8848;50.810;4.790;2022-08-21T08:06:39;3.00;;;1.45;;
17461;SDS011;8848;50.810;4.790;2022-08-21T08:09:05;1.98;;;1.42;;
17461;SDS011;8848;50.810;4.790;2022-08-21T08:11:31;3.30;;;1.15;;
17461;SDS011;8848;50.810;4.790;2022-08-21T08:13:58;4.00;;;1.20;;
17461;SDS011;8848;50.810;4.790;2022-08-21T08:16:24;2.80;;;1.40;;
17461;SDS011;8848;50.810;4.790;2022-08-21T08:18:50;1.95;;;1.08;;
17461;SDS011;8848;50.810;4.790;2022-08-21T08:21:16;3.38;;;1.23;;
17461;SDS011;8848;50.810;4.790;2022-08-21T08:23:45;2.17;;;1.15;;
17461;SDS011;8848;50.810;4.790;2022-08-21T08:26:11;2.13;;;1.30;;
17461;SDS011;8848;50.810;4.790;2022-08-21T08:28:37;1.77;;;1.17;;
17461;SDS011;8848;50.810;4.790;2022-08-21T08:31:03;2.75;;;1.23;;
17461;SDS011;8848;50.810;4.790;2022-08-21T08:33:30;1.45;;;1.02;;
17461;SDS011;8848;50.810;4.790;2022-08-21T08:35:56;1.30;;;1.00;;
17461;SDS011;8848;50.810;4.790;2022-08-21T08:38:23;2.38;;;1.33;;
17461;SDS011;8848;50.810;4.790;2022-08-21T08:43:18;1.95;;;1.10;;
17461;SDS011;8848;50.810;4.790;2022-08-21T08:45:46;1.13;;;0.77;;
17461;SDS011;8848;50.810;4.790;2022-08-21T08:48:17;1.45;;;1.10;;
17461;SDS011;8848;50.810;4.790;2022-08-21T08:50:47;1.98;;;1.13;;
17461;SDS011;8848;50.810;4.790;2022-08-21T08:55:46;3.40;;;1.35;;
17461;SDS011;8848;50.810;4.790;2022-08-21T08:58:14;1.48;;;0.93;;
17461;SDS011;8848;50.810;4.790;2022-08-21T09:00:42;1.73;;;1.10;;
17461;SDS011;8848;50.810;4.790;2022-08-21T09:03:10;2.28;;;0.88;;
17461;SDS011;8848;50.810;4.790;2022-08-21T09:05:43;2.03;;;1.02;;
17461;SDS011;8848;50.810;4.790;2022-08-21T09:08:19;1.42;;;1.10;;
17461;SDS011;8848;50.810;4.790;2022-08-21T09:10:57;2.22;;;1.23;;
17461;SDS011;8848;50.810;4.790;2022-08-21T09:18:50;2.83;;;1.10;;
17461;SDS011;8848;50.810;4.790;2022-08-21T09:21:41;2.88;;;1.20;;
17461;SDS011;8848;50.810;4.790;2022-08-21T09:29:09;4.38;;;1.17;;
17461;SDS011;8848;50.810;4.790;2022-08-21T09:31:37;6.20;;;1.48;;
17461;SDS011;8848;50.810;4.790;2022-08-21T09:34:07;5.38;;;1.65;;
17461;SDS011;8848;50.810;4.790;2022-08-21T09:36:37;4.78;;;1.45;;
17461;SDS011;8848;50.810;4.790;2022-08-21T09:39:03;5.57;;;1.40;;
17461;SDS011;8848;50.810;4.790;2022-08-21T09:41:31;2.50;;;1.30;;
17461;SDS011;8848;50.810;4.790;2022-08-21T09:43:58;5.70;;;1.33;;
17461;SDS011;8848;50.810;4.790;2022-08-21T09:46:25;4.68;;;1.45;;
17461;SDS011;8848;50.810;4.790;2022-08-21T09:48:55;3.17;;;1.33;;
17461;SDS011;8848;50.810;4.790;2022-08-21T09:51:22;3.67;;;1.60;;
17461;SDS011;8848;50.810;4.790;2022-08-21T09:53:51;3.03;;;1.52;;
17461;SDS011;8848;50.810;4.790;2022-08-21T09:56:33;6.07;;;1.65;;
17461;SDS011;8848;50.810;4.790;2022-08-21T10:01:45;3.05;;;1.50;;
17461;SDS011;8848;50.810;4.790;2022-08-21T10:04:11;2.88;;;0.98;;
17461;SDS011;8848;50.810;4.790;2022-08-21T10:06:38;1.63;;;1.05;;
17461;SDS011;8848;50.810;4.790;2022-08-21T10:11:30;4.55;;;1.25;;
17461;SDS011;8848;50.810;4.790;2022-08-21T10:14:24;2.25;;;1.20;;
17461;SDS011;8848;50.810;4.790;2022-08-21T10:24:22;2.67;;;1.23;;
17461;SDS011;8848;50.810;4.790;2022-08-21T10:34:16;2.85;;;1.05;;
17461;SDS011;8848;50.810;4.790;2022-08-21T10:50:13;2.95;;;1.25;;
17461;SDS011;8848;50.810;4.790;2022-08-21T10:52:52;4.38;;;1.42;;
17461;SDS011;8848;50.810;4.790;2022-08-21T10:55:26;2.58;;;1.23;;
17461;SDS011;8848;50.810;4.790;2022-08-21T10:58:18;2.83;;;1.40;;
17461;SDS011;8848;50.810;4.790;2022-08-21T11:03:27;2.88;;;1.30;;
17461;SDS011;8848;50.810;4.790;2022-08-21T11:05:55;3.45;;;1.40;;
17461;SDS011;8848;50.810;4.790;2022-08-21T11:08:26;2.92;;;1.33;;
17461;SDS011;8848;50.810;4.790;2022-08-21T11:13:39;4.50;;;1.70;;
17461;SDS011;8848;50.810;4.790;2022-08-21T11:16:21;9.07;;;1.60;;
17461;SDS011;8848;50.810;4.790;2022-08-21T11:18:57;4.47;;;1.50;;
17461;SDS011;8848;50.810;4.790;2022-08-21T11:21:29;4.88;;;1.58;;
17461;SDS011;8848;50.810;4.790;2022-08-21T11:26:43;2.35;;;1.25;;
17461;SDS011;8848;50.810;4.790;2022-08-21T11:29:12;4.70;;;1.73;;
17461;SDS011;8848;50.810;4.790;2022-08-21T11:42:30;2.60;;;1.60;;
17461;SDS011;8848;50.810;4.790;2022-08-21T11:50:15;7.78;;;1.60;;
17461;SDS011;8848;50.810;4.790;2022-08-21T11:52:45;5.60;;;1.85;;
17461;SDS011;8848;50.810;4.790;2022-08-21T12:00:29;1.90;;;1.17;;
17461;SDS011;8848;50.810;4.790;2022-08-21T12:02:58;3.35;;;1.23;;
17461;SDS011;8848;50.810;4.790;2022-08-21T12:05:30;4.18;;;1.40;;
17461;SDS011;8848;50.810;4.790;2022-08-21T12:08:26;3.10;;;1.67;;
17461;SDS011;8848;50.810;4.790;2022-08-21T12:10:58;4.80;;;1.80;;
17461;SDS011;8848;50.810;4.790;2022-08-21T12:13:29;2.38;;;1.48;;
17461;SDS011;8848;50.810;4.790;2022-08-21T12:16:08;3.42;;;1.45;;
17461;SDS011;8848;50.810;4.790;2022-08-21T12:18:35;2.85;;;1.48;;
17461;SDS011;8848;50.810;4.790;2022-08-21T12:26:00;3.47;;;1.75;;
17461;SDS011;8848;50.810;4.790;2022-08-21T12:28:27;3.90;;;1.77;;
17461;SDS011;8848;50.810;4.790;2022-08-21T12:30:53;3.03;;;1.20;;
17461;SDS011;8848;50.810;4.790;2022-08-21T12:33:21;4.10;;;1.55;;
17461;SDS011;8848;50.810;4.790;2022-08-21T12:35:48;3.22;;;1.65;;
17461;SDS011;8848;50.810;4.790;2022-08-21T12:38:19;2.80;;;1.38;;
17461;SDS011;8848;50.810;4.790;2022-08-21T12:40:47;2.70;;;1.40;;
17461;SDS011;8848;50.810;4.790;2022-08-21T12:43:20;2.80;;;1.23;;
17461;SDS011;8848;50.810;4.790;2022-08-21T12:45:49;2.83;;;1.42;;
17461;SDS011;8848;50.810;4.790;2022-08-21T12:48:33;2.67;;;1.10;;
17461;SDS011;8848;50.810;4.790;2022-08-21T12:53:38;1.58;;;1.00;;
17461;SDS011;8848;50.810;4.790;2022-08-21T12:56:10;2.95;;;1.33;;
17461;SDS011;8848;50.810;4.790;2022-08-21T12:58:39;3.10;;;1.10;;
17461;SDS011;8848;50.810;4.790;2022-08-21T13:01:06;4.80;;;1.50;;
17461;SDS011;8848;50.810;4.790;2022-08-21T13:03:35;3.05;;;1.52;;
17461;SDS011;8848;50.810;4.790;2022-08-21T13:06:05;3.58;;;1.27;;
17461;SDS011;8848;50.810;4.790;2022-08-21T13:08:32;2.28;;;1.20;;
17461;SDS011;8848;50.810;4.790;2022-08-21T13:10:59;4.03;;;1.55;;
17461;SDS011;8848;50.810;4.790;2022-08-21T13:13:26;3.22;;;1.52;;
17461;SDS011;8848;50.810;4.790;2022-08-21T13:15:56;2.38;;;1.13;;
17461;SDS011;8848;50.810;4.790;2022-08-21T13:18:24;3.08;;;1.50;;
17461;SDS011;8848;50.810;4.790;2022-08-21T13:20:51;5.20;;;1.70;;
17461;SDS011;8848;50.810;4.790;2022-08-21T13:23:23;4.43;;;1.92;;
17461;SDS011;8848;50.810;4.790;2022-08-21T13:25:49;8.50;;;2.50;;
17461;SDS011;8848;50.810;4.790;2022-08-21T13:28:15;12.60;;;2.30;;
17461;SDS011;8848;50.810;4.790;2022-08-21T13:30:43;5.95;;;2.17;;
17461;SDS011;8848;50.810;4.790;2022-08-21T13:33:10;5.57;;;1.67;;
17461;SDS011;8848;50.810;4.790;2022-08-21T13:35:48;7.60;;;2.10;;
17461;SDS011;8848;50.810;4.790;2022-08-21T13:38:15;8.02;;;1.95;;
17461;SDS011;8848;50.810;4.790;2022-08-21T13:40:49;4.60;;;1.38;;
17461;SDS011;8848;50.810;4.790;2022-08-21T13:43:17;7.43;;;1.92;;
17461;SDS011;8848;50.810;4.790;2022-08-21T13:45:46;7.05;;;2.45;;
17461;SDS011;8848;50.810;4.790;2022-08-21T13:48:13;5.65;;;2.08;;
17461;SDS011;8848;50.810;4.790;2022-08-21T13:50:39;5.43;;;1.95;;
17461;SDS011;8848;50.810;4.790;2022-08-21T13:53:07;8.80;;;1.95;;
17461;SDS011;8848;50.810;4.790;2022-08-21T13:55:38;6.88;;;1.77;;
17461;SDS011;8848;50.810;4.790;2022-08-21T13:58:05;7.20;;;1.63;;
17461;SDS011;8848;50.810;4.790;2022-08-21T14:00:32;5.82;;;1.70;;
17461;SDS011;8848;50.810;4.790;2022-08-21T14:03:05;6.93;;;2.10;;
17461;SDS011;8848;50.810;4.790;2022-08-21T14:05:33;6.13;;;1.90;;
17461;SDS011;8848;50.810;4.790;2022-08-21T14:08:18;6.78;;;2.10;;
17461;SDS011;8848;50.810;4.790;2022-08-21T14:10:49;6.20;;;1.60;;
17461;SDS011;8848;50.810;4.790;2022-08-21T14:16:02;4.55;;;1.67;;
17461;SDS011;8848;50.810;4.790;2022-08-21T14:18:28;6.88;;;1.95;;
17461;SDS011;8848;50.810;4.790;2022-08-21T14:21:05;5.25;;;1.67;;
17461;SDS011;8848;50.810;4.790;2022-08-21T14:23:31;5.80;;;2.08;;
17461;SDS011;8848;50.810;4.790;2022-08-21T14:26:02;3.25;;;1.48;;
17461;SDS011;8848;50.810;4.790;2022-08-21T14:28:30;5.10;;;2.10;;
17461;SDS011;8848;50.810;4.790;2022-08-21T14:30:57;5.13;;;1.80;;
17461;SDS011;8848;50.810;4.790;2022-08-21T14:35:49;5.35;;;2.10;;
17461;SDS011;8848;50.810;4.790;2022-08-21T14:38:21;4.78;;;1.98;;
17461;SDS011;8848;50.810;4.790;2022-08-21T14:40:55;7.90;;;2.38;;
17461;SDS011;8848;50.810;4.790;2022-08-21T14:43:22;5.40;;;1.50;;
17461;SDS011;8848;50.810;4.790;2022-08-21T14:45:48;3.03;;;1.65;;
17461;SDS011;8848;50.810;4.790;2022-08-21T14:48:14;5.80;;;2.22;;
17461;SDS011;8848;50.810;4.790;2022-08-21T14:50:40;7.93;;;2.42;;
17461;SDS011;8848;50.810;4.790;2022-08-21T14:53:07;6.72;;;2.42;;
17461;SDS011;8848;50.810;4.790;2022-08-21T14:55:33;6.05;;;1.83;;
17461;SDS011;8848;50.810;4.790;2022-08-21T14:58:18;3.25;;;1.38;;
17461;SDS011;8848;50.810;4.790;2022-08-21T15:00:44;4.70;;;1.80;;
17461;SDS011;8848;50.810;4.790;2022-08-21T15:03:10;5.25;;;1.73;;
17461;SDS011;8848;50.810;4.790;2022-08-21T15:05:36;6.45;;;1.35;;
17461;SDS011;8848;50.810;4.790;2022-08-21T15:08:03;4.80;;;2.03;;
17461;SDS011;8848;50.810;4.790;2022-08-21T15:10:30;8.68;;;2.10;;
17461;SDS011;8848;50.810;4.790;2022-08-21T15:12:57;4.68;;;1.85;;
17461;SDS011;8848;50.810;4.790;2022-08-21T15:15:23;7.82;;;2.50;;
17461;SDS011;8848;50.810;4.790;2022-08-21T15:17:49;5.57;;;1.92;;
17461;SDS011;8848;50.810;4.790;2022-08-21T15:20:15;5.15;;;1.77;;
17461;SDS011;8848;50.810;4.790;2022-08-21T15:22:41;5.82;;;2.13;;
17461;SDS011;8848;50.810;4.790;2022-08-21T15:25:07;5.25;;;1.98;;
17461;SDS011;8848;50.810;4.790;2022-08-21T15:27:33;5.82;;;2.15;;
17461;SDS011;8848;50.810;4.790;2022-08-21T15:30:00;7.80;;;2.33;;
17461;SDS011;8848;50.810;4.790;2022-08-21T15:32:27;4.75;;;1.98;;
17461;SDS011;8848;50.810;4.790;2022-08-21T15:34:55;5.65;;;1.98;;
17461;SDS011;8848;50.810;4.790;2022-08-21T15:37:22;8.63;;;2.13;;
17461;SDS011;8848;50.810;4.790;2022-08-21T15:39:48;5.75;;;1.70;;
17461;SDS011;8848;50.810;4.790;2022-08-21T15:42:15;3.75;;;1.52;;
17461;SDS011;8848;50.810;4.790;2022-08-21T15:44:41;3.70;;;1.70;;
17461;SDS011;8848;50.810;4.790;2022-08-21T15:47:14;6.63;;;1.80;;
17461;SDS011;8848;50.810;4.790;2022-08-21T15:49:41;6.45;;;2.10;;
17461;SDS011;8848;50.810;4.790;2022-08-21T15:52:16;4.75;;;1.67;;
17461;SDS011;8848;50.810;4.790;2022-08-21T15:54:43;6.43;;;1.55;;
17461;SDS011;8848;50.810;4.790;2022-08-21T15:57:10;3.42;;;1.70;;
17461;SDS011;8848;50.810;4.790;2022-08-21T15:59:39;4.22;;;1.65;;
17461;SDS011;8848;50.810;4.790;2022-08-21T16:02:07;4.82;;;1.80;;
17461;SDS011;8848;50.810;4.790;2022-08-21T16:04:34;4.50;;;2.05;;
17461;SDS011;8848;50.810;4.790;2022-08-21T16:07:00;7.10;;;1.90;;
17461;SDS011;8848;50.810;4.790;2022-08-21T16:09:26;4.05;;;1.80;;
17461;SDS011;8848;50.810;4.790;2022-08-21T16:11:52;6.22;;;1.90;;
17461;SDS011;8848;50.810;4.790;2022-08-21T16:14:18;4.75;;;1.55;;
17461;SDS011;8848;50.810;4.790;2022-08-21T16:16:45;4.88;;;2.22;;
17461;SDS011;8848;50.810;4.790;2022-08-21T16:19:11;7.65;;;2.13;;
17461;SDS011;8848;50.810;4.790;2022-08-21T16:21:38;5.88;;;1.83;;
17461;SDS011;8848;50.810;4.790;2022-08-21T16:24:05;5.07;;;1.58;;
17461;SDS011;8848;50.810;4.790;2022-08-21T16:26:31;6.32;;;2.00;;
17461;SDS011;8848;50.810;4.790;2022-08-21T16:28:57;5.88;;;1.83;;
17461;SDS011;8848;50.810;4.790;2022-08-21T16:31:24;5.75;;;1.92;;
17461;SDS011;8848;50.810;4.790;2022-08-21T16:33:54;4.88;;;1.58;;
17461;SDS011;8848;50.810;4.790;2022-08-21T16:36:21;6.78;;;2.03;;
17461;SDS011;8848;50.810;4.790;2022-08-21T16:38:50;4.63;;;1.83;;
17461;SDS011;8848;50.810;4.790;2022-08-21T16:41:18;2.65;;;1.63;;